createdAt,value
2018-01-05T00:00:37.660Z,0
2018-01-05T00:01:37.958Z,0
2018-01-05T00:02:37.934Z,0
2018-01-05T00:03:37.701Z,0
2018-01-05T00:04:37.693Z,0
2018-01-05T00:05:37.952Z,0
2018-01-05T00:06:37.406Z,0
2018-01-05T00:07:37.422Z,0
2018-01-05T00:08:37.422Z,0
2018-01-05T00:09:37.933Z,0
2018-01-05T00:10:37.964Z,0
2018-01-05T00:11:37.752Z,0
2018-01-05T00:12:37.611Z,0
2018-01-05T00:13:37.919Z,0
2018-01-05T00:14:37.363Z,0
2018-01-05T00:15:37.357Z,0
2018-01-05T00:16:37.861Z,0
2018-01-05T00:17:37.392Z,0
2018-01-05T00:18:37.826Z,0
2018-01-05T00:19:37.326Z,0
2018-01-05T00:20:37.635Z,0
2018-01-05T00:21:37.323Z,0
2018-01-05T00:22:37.310Z,0
2018-01-05T00:23:37.553Z,0
2018-01-05T00:24:37.331Z,0
2018-01-05T00:25:37.617Z,0
2018-01-05T00:26:37.527Z,0
2018-01-05T00:27:37.774Z,0
2018-01-05T00:28:37.563Z,0
2018-01-05T00:29:37.516Z,0
2018-01-05T00:30:37.538Z,0
2018-01-05T00:31:37.538Z,0
2018-01-05T00:32:37.525Z,0
2018-01-05T00:33:37.503Z,0
2018-01-05T00:34:37.715Z,0
2018-01-05T00:35:37.789Z,0
2018-01-05T00:36:37.494Z,0
2018-01-05T00:37:37.456Z,0
2018-01-05T00:38:37.454Z,0
2018-01-05T00:39:37.442Z,0
2018-01-05T00:40:37.438Z,0
2018-01-05T00:41:37.464Z,0
2018-01-05T00:42:37.731Z,0
2018-01-05T00:43:37.428Z,0
2018-01-05T00:44:37.168Z,0
2018-01-05T00:45:37.418Z,0
2018-01-05T00:46:37.171Z,0
2018-01-05T00:47:37.654Z,0
2018-01-05T00:48:37.402Z,0
2018-01-05T00:49:37.636Z,0
2018-01-05T00:50:36.884Z,0
2018-01-05T00:51:37.388Z,0
2018-01-05T00:52:37.390Z,0
2018-01-05T00:53:37.363Z,0
2018-01-05T00:54:37.372Z,0
2018-01-05T00:55:37.616Z,0
2018-01-05T00:56:37.358Z,0
2018-01-05T00:57:37.349Z,0
2018-01-05T00:58:37.588Z,0
2018-01-05T00:59:37.093Z,0
2018-01-05T01:00:37.333Z,0
2018-01-05T01:01:37.083Z,0
2018-01-05T01:02:37.573Z,0
2018-01-05T01:03:37.313Z,0
2018-01-05T01:04:37.580Z,0
2018-01-05T01:05:37.567Z,0
2018-01-05T01:06:37.315Z,0
2018-01-05T01:07:37.559Z,0
2018-01-05T01:08:37.533Z,0
2018-01-05T01:09:37.031Z,0
2018-01-05T01:10:37.271Z,0
2018-01-05T01:11:37.262Z,0
2018-01-05T01:12:37.263Z,0
2018-01-05T01:13:37.507Z,0
2018-01-05T01:14:37.509Z,0
2018-01-05T01:15:36.503Z,0
2018-01-05T01:16:37.254Z,0
2018-01-05T01:17:37.482Z,0
2018-01-05T01:18:37.477Z,0
2018-01-05T01:19:37.222Z,0
2018-01-05T01:20:37.467Z,0
2018-01-05T01:21:37.210Z,0
2018-01-05T01:22:37.456Z,0
2018-01-05T01:23:37.450Z,0
2018-01-05T01:24:37.440Z,0
2018-01-05T01:25:37.448Z,0
2018-01-05T01:26:37.451Z,0
2018-01-05T01:27:37.190Z,0
2018-01-05T01:28:37.426Z,0
2018-01-05T01:29:36.913Z,0
2018-01-05T01:30:37.156Z,0
2018-01-05T01:31:37.155Z,0
2018-01-05T01:32:37.138Z,0
2018-01-05T01:33:37.394Z,0
2018-01-05T01:34:37.131Z,0
2018-01-05T01:35:36.873Z,0
2018-01-05T01:36:37.371Z,0
2018-01-05T01:37:37.117Z,0
2018-01-05T01:38:37.377Z,0
2018-01-05T01:39:37.369Z,0
2018-01-05T01:40:36.848Z,0
2018-01-05T01:41:37.097Z,0
2018-01-05T01:42:41.152Z,0
2018-01-05T01:43:36.830Z,0
2018-01-05T01:44:37.102Z,0
2018-01-05T01:45:37.401Z,0
2018-01-05T01:46:37.309Z,0
2018-01-05T01:47:37.105Z,0
2018-01-05T01:48:37.310Z,0
2018-01-05T01:49:37.298Z,0
2018-01-05T01:50:37.291Z,0
2018-01-05T01:51:36.793Z,0
2018-01-05T01:52:37.033Z,0
2018-01-05T01:53:37.299Z,0
2018-01-05T01:54:37.026Z,0
2018-01-05T01:55:36.760Z,0
2018-01-05T01:56:37.010Z,0
2018-01-05T01:57:37.250Z,0
2018-01-05T01:58:36.984Z,0
2018-01-05T01:59:37.267Z,0
2018-01-05T02:00:36.976Z,0
2018-01-05T02:01:37.216Z,0
2018-01-05T02:02:37.220Z,0
2018-01-05T02:03:37.210Z,0
2018-01-05T02:04:36.469Z,0
2018-01-05T02:05:36.950Z,0
2018-01-05T02:06:37.198Z,0
2018-01-05T02:07:37.191Z,0
2018-01-05T02:08:37.188Z,0
2018-01-05T02:09:36.923Z,0
2018-01-05T02:10:37.173Z,0
2018-01-05T02:11:37.169Z,0
2018-01-05T02:12:37.158Z,0
2018-01-05T02:13:37.401Z,0
2018-01-05T02:14:36.635Z,0
2018-01-05T02:15:36.884Z,0
2018-01-05T02:16:37.142Z,0
2018-01-05T02:17:37.139Z,0
2018-01-05T02:18:36.353Z,0
2018-01-05T02:19:36.854Z,0
2018-01-05T02:20:36.853Z,0
2018-01-05T02:21:36.850Z,0
2018-01-05T02:22:37.098Z,0
2018-01-05T02:23:36.838Z,0
2018-01-05T02:24:36.849Z,0
2018-01-05T02:25:36.840Z,0
2018-01-05T02:26:37.065Z,0
2018-01-05T02:27:37.064Z,0
2018-01-05T02:28:36.549Z,0
2018-01-05T02:29:36.803Z,0
2018-01-05T02:30:37.052Z,0
2018-01-05T02:31:37.072Z,0
2018-01-05T02:32:36.537Z,0
2018-01-05T02:33:36.778Z,0
2018-01-05T02:34:37.032Z,0
2018-01-05T02:35:36.792Z,0
2018-01-05T02:36:36.769Z,0
2018-01-05T02:37:37.000Z,0
2018-01-05T02:38:37.000Z,0
2018-01-05T02:39:36.988Z,0
2018-01-05T02:40:36.486Z,0
2018-01-05T02:41:36.985Z,0
2018-01-05T02:42:36.728Z,0
2018-01-05T02:43:37.914Z,0
2018-01-05T02:44:36.973Z,0
2018-01-05T02:45:36.968Z,0
2018-01-05T02:46:36.246Z,0
2018-01-05T02:47:36.707Z,0
2018-01-05T02:48:36.697Z,0
2018-01-05T02:49:36.432Z,0
2018-01-05T02:50:36.917Z,0
2018-01-05T02:51:36.918Z,0
2018-01-05T02:52:36.705Z,0
2018-01-05T02:53:36.692Z,0
2018-01-05T02:54:36.651Z,0
2018-01-05T02:55:36.958Z,0
2018-01-05T02:56:36.715Z,0
2018-01-05T02:57:36.886Z,0
2018-01-05T02:58:36.628Z,0
2018-01-05T02:59:36.866Z,0
2018-01-05T03:00:36.125Z,0
2018-01-05T03:01:36.864Z,0
2018-01-05T03:02:36.844Z,0
2018-01-05T03:03:36.582Z,0
2018-01-05T03:04:36.586Z,0
2018-01-05T03:05:36.585Z,0
2018-01-05T03:06:36.322Z,0
2018-01-05T03:07:36.807Z,0
2018-01-05T03:08:36.819Z,0
2018-01-05T03:09:36.805Z,0
2018-01-05T03:10:36.801Z,0
2018-01-05T03:11:36.803Z,0
2018-01-05T03:12:36.521Z,0
2018-01-05T03:13:36.921Z,0
2018-01-05T03:14:36.520Z,0
2018-01-05T03:15:36.764Z,0
2018-01-05T03:16:36.518Z,0
2018-01-05T03:17:36.776Z,0
2018-01-05T03:18:36.798Z,0
2018-01-05T03:19:35.986Z,0
2018-01-05T03:20:36.473Z,0
2018-01-05T03:21:36.746Z,0
2018-01-05T03:22:36.467Z,0
2018-01-05T03:23:36.715Z,0
2018-01-05T03:24:36.457Z,0
2018-01-05T03:25:36.708Z,0
2018-01-05T03:26:36.232Z,0
2018-01-05T03:27:36.442Z,0
2018-01-05T03:28:36.680Z,0
2018-01-05T03:29:36.425Z,0
2018-01-05T03:30:36.702Z,0
2018-01-05T03:31:36.699Z,0
2018-01-05T03:32:36.664Z,0
2018-01-05T03:33:36.389Z,0
2018-01-05T03:34:36.396Z,0
2018-01-05T03:35:36.453Z,0
2018-01-05T03:36:36.659Z,0
2018-01-05T03:37:36.623Z,0
2018-01-05T03:38:36.372Z,0
2018-01-05T03:39:36.610Z,0
2018-01-05T03:40:36.362Z,0
2018-01-05T03:41:36.351Z,0
2018-01-05T03:42:36.400Z,0
2018-01-05T03:43:41.295Z,0
2018-01-05T03:44:36.589Z,0
2018-01-05T03:45:36.328Z,0
2018-01-05T03:46:36.330Z,0
2018-01-05T03:47:36.564Z,0
2018-01-05T03:48:36.552Z,0
2018-01-05T03:49:36.065Z,0
2018-01-05T03:50:36.359Z,0
2018-01-05T03:51:36.317Z,0
2018-01-05T03:52:36.536Z,0
2018-01-05T03:53:36.287Z,0
2018-01-05T03:54:36.528Z,0
2018-01-05T03:55:36.528Z,0
2018-01-05T03:56:36.524Z,0
2018-01-05T03:57:35.770Z,0
2018-01-05T03:58:36.040Z,0
2018-01-05T03:59:36.501Z,0
2018-01-05T04:00:36.252Z,0
2018-01-05T04:01:36.255Z,0
2018-01-05T04:02:36.228Z,0
2018-01-05T04:03:36.462Z,0
2018-01-05T04:04:36.230Z,0
2018-01-05T04:05:35.957Z,0
2018-01-05T04:06:35.949Z,0
2018-01-05T04:07:36.444Z,0
2018-01-05T04:08:36.219Z,0
2018-01-05T04:09:35.942Z,0
2018-01-05T04:10:36.424Z,0
2018-01-05T04:11:36.428Z,0
2018-01-05T04:12:36.166Z,0
2018-01-05T04:13:35.895Z,0
2018-01-05T04:14:36.037Z,0
2018-01-05T04:15:36.147Z,0
2018-01-05T04:16:36.146Z,0
2018-01-05T04:17:36.186Z,0
2018-01-05T04:18:35.909Z,0
2018-01-05T04:19:35.857Z,0
2018-01-05T04:20:35.859Z,0
2018-01-05T04:21:36.134Z,0
2018-01-05T04:22:36.345Z,0
2018-01-05T04:23:36.104Z,0
2018-01-05T04:24:36.344Z,0
2018-01-05T04:25:36.347Z,0
2018-01-05T04:26:36.092Z,0
2018-01-05T04:27:36.336Z,0
2018-01-05T04:28:36.063Z,0
2018-01-05T04:29:36.319Z,0
2018-01-05T04:30:36.318Z,0
2018-01-05T04:31:36.044Z,0
2018-01-05T04:32:36.337Z,0
2018-01-05T04:33:36.037Z,0
2018-01-05T04:34:36.284Z,0
2018-01-05T04:35:36.277Z,0
2018-01-05T04:36:36.282Z,0
2018-01-05T04:37:36.002Z,0
2018-01-05T04:38:36.260Z,0
2018-01-05T04:39:35.731Z,0
2018-01-05T04:40:36.010Z,0
2018-01-05T04:41:36.004Z,0
2018-01-05T04:42:35.986Z,0
2018-01-05T04:43:35.965Z,0
2018-01-05T04:44:36.376Z,0
2018-01-05T04:45:36.236Z,0
2018-01-05T04:46:36.202Z,0
2018-01-05T04:47:36.232Z,0
2018-01-05T04:48:35.438Z,0
2018-01-05T04:49:35.955Z,0
2018-01-05T04:50:36.204Z,0
2018-01-05T04:51:36.197Z,0
2018-01-05T04:52:35.669Z,0
2018-01-05T04:53:35.912Z,0
2018-01-05T04:54:35.902Z,0
2018-01-05T04:55:36.164Z,0
2018-01-05T04:56:36.169Z,0
2018-01-05T04:57:35.889Z,0
2018-01-05T04:58:35.614Z,0
2018-01-05T04:59:36.303Z,0
2018-01-05T05:00:35.864Z,0
2018-01-05T05:01:36.132Z,0
2018-01-05T05:02:35.596Z,0
2018-01-05T05:03:36.139Z,0
2018-01-05T05:04:35.582Z,0
2018-01-05T05:05:36.100Z,0
2018-01-05T05:06:36.087Z,0
2018-01-05T05:07:35.576Z,0
2018-01-05T05:08:35.821Z,0
2018-01-05T05:09:36.069Z,0
2018-01-05T05:10:35.807Z,0
2018-01-05T05:11:36.050Z,0
2018-01-05T05:12:36.052Z,0
2018-01-05T05:13:36.050Z,0
2018-01-05T05:14:36.019Z,0
2018-01-05T05:15:36.034Z,0
2018-01-05T05:16:36.020Z,0
2018-01-05T05:17:36.005Z,0
2018-01-05T05:18:35.767Z,0
2018-01-05T05:19:36.806Z,0
2018-01-05T05:20:35.990Z,0
2018-01-05T05:21:35.773Z,0
2018-01-05T05:22:35.985Z,0
2018-01-05T05:23:35.729Z,0
2018-01-05T05:24:35.716Z,0
2018-01-05T05:25:35.967Z,0
2018-01-05T05:26:35.455Z,0
2018-01-05T05:27:35.698Z,0
2018-01-05T05:28:35.943Z,0
2018-01-05T05:29:35.694Z,0
2018-01-05T05:30:35.940Z,0
2018-01-05T05:31:35.934Z,0
2018-01-05T05:32:35.939Z,0
2018-01-05T05:33:35.923Z,0
2018-01-05T05:34:35.929Z,0
2018-01-05T05:35:35.395Z,0
2018-01-05T05:36:35.911Z,0
2018-01-05T05:37:35.896Z,0
2018-01-05T05:38:35.641Z,0
2018-01-05T05:39:35.638Z,0
2018-01-05T05:40:35.887Z,0
2018-01-05T05:41:35.887Z,0
2018-01-05T05:42:35.642Z,0
2018-01-05T05:43:35.608Z,0
2018-01-05T05:44:37.722Z,0
2018-01-05T05:45:35.608Z,0
2018-01-05T05:46:35.849Z,0
2018-01-05T05:47:35.873Z,0
2018-01-05T05:48:35.835Z,0
2018-01-05T05:49:35.315Z,0
2018-01-05T05:50:35.570Z,0
2018-01-05T05:51:35.840Z,0
2018-01-05T05:52:35.830Z,0
2018-01-05T05:53:35.826Z,0
2018-01-05T05:54:35.296Z,0
2018-01-05T05:55:35.546Z,0
2018-01-05T05:56:35.793Z,0
2018-01-05T05:57:35.535Z,0
2018-01-05T05:58:35.536Z,0
2018-01-05T05:59:35.518Z,0
2018-01-05T06:00:35.969Z,0
2018-01-05T06:01:35.764Z,0
2018-01-05T06:02:35.503Z,0
2018-01-05T06:03:35.751Z,0
2018-01-05T06:04:35.745Z,0
2018-01-05T06:05:35.468Z,0
2018-01-05T06:06:35.728Z,0
2018-01-05T06:07:35.715Z,0
2018-01-05T06:08:35.712Z,0
2018-01-05T06:09:35.194Z,0
2018-01-05T06:10:35.704Z,0
2018-01-05T06:11:35.445Z,0
2018-01-05T06:12:35.183Z,0
2018-01-05T06:13:35.690Z,0
2018-01-05T06:14:35.689Z,0
2018-01-05T06:15:35.681Z,0
2018-01-05T06:16:35.411Z,0
2018-01-05T06:17:35.408Z,0
2018-01-05T06:18:35.407Z,0
2018-01-05T06:19:35.657Z,0
2018-01-05T06:20:35.396Z,0
2018-01-05T06:21:35.137Z,0
2018-01-05T06:22:34.873Z,0
2018-01-05T06:23:35.116Z,0
2018-01-05T06:24:35.114Z,0
2018-01-05T06:25:35.366Z,0
2018-01-05T06:26:35.606Z,0
2018-01-05T06:27:35.615Z,0
2018-01-05T06:28:35.613Z,0
2018-01-05T06:29:35.081Z,0
2018-01-05T06:30:35.077Z,0
2018-01-05T06:31:35.584Z,0
2018-01-05T06:32:34.810Z,0
2018-01-05T06:33:35.572Z,0
2018-01-05T06:34:35.327Z,0
2018-01-05T06:35:35.312Z,0
2018-01-05T06:36:35.608Z,0
2018-01-05T06:37:35.300Z,0
2018-01-05T06:38:35.551Z,0
2018-01-05T06:39:35.541Z,0
2018-01-05T06:40:35.276Z,0
2018-01-05T06:41:35.262Z,0
2018-01-05T06:42:35.517Z,0
2018-01-05T06:43:35.506Z,0
2018-01-05T06:44:35.255Z,0
2018-01-05T06:45:35.643Z,0
2018-01-05T06:46:35.487Z,0
2018-01-05T06:47:35.235Z,0
2018-01-05T06:48:35.493Z,0
2018-01-05T06:49:34.963Z,0
2018-01-05T06:50:35.491Z,0
2018-01-05T06:51:35.465Z,0
2018-01-05T06:52:35.192Z,0
2018-01-05T06:53:34.944Z,0
2018-01-05T06:54:35.201Z,0
2018-01-05T06:55:35.457Z,0
2018-01-05T06:56:35.454Z,0
2018-01-05T06:57:35.198Z,0
2018-01-05T06:58:35.166Z,0
2018-01-05T06:59:35.162Z,0
2018-01-05T07:00:35.419Z,0
2018-01-05T07:01:35.147Z,0
2018-01-05T07:02:35.161Z,0
2018-01-05T07:03:35.139Z,0
2018-01-05T07:04:34.869Z,0
2018-01-05T07:05:35.911Z,0
2018-01-05T07:06:35.359Z,0
2018-01-05T07:07:35.352Z,0
2018-01-05T07:08:35.343Z,0
2018-01-05T07:09:35.099Z,5
2018-01-05T07:10:35.073Z,5
2018-01-05T07:11:35.336Z,5
2018-01-05T07:12:35.348Z,5
2018-01-05T07:13:35.336Z,5
2018-01-05T07:14:34.320Z,5
2018-01-05T07:15:35.294Z,5
2018-01-05T07:16:34.822Z,5
2018-01-05T07:17:34.787Z,5
2018-01-05T07:18:35.278Z,5
2018-01-05T07:19:35.286Z,5
2018-01-05T07:20:35.569Z,5
2018-01-05T07:21:35.281Z,5
2018-01-05T07:22:35.010Z,5
2018-01-05T07:23:35.245Z,5
2018-01-05T07:24:35.005Z,5
2018-01-05T07:25:34.727Z,5
2018-01-05T07:26:35.227Z,5
2018-01-05T07:27:35.230Z,5
2018-01-05T07:28:35.212Z,5
2018-01-05T07:29:34.954Z,10
2018-01-05T07:30:35.216Z,10
2018-01-05T07:31:34.942Z,10
2018-01-05T07:32:34.937Z,10
2018-01-05T07:33:35.183Z,10
2018-01-05T07:34:34.938Z,10
2018-01-05T07:35:34.936Z,10
2018-01-05T07:36:34.673Z,15
2018-01-05T07:37:35.164Z,15
2018-01-05T07:38:34.901Z,15
2018-01-05T07:39:34.901Z,15
2018-01-05T07:40:34.647Z,20
2018-01-05T07:41:35.133Z,20
2018-01-05T07:42:34.952Z,20
2018-01-05T07:43:34.879Z,20
2018-01-05T07:44:34.905Z,20
2018-01-05T07:45:34.621Z,20
2018-01-05T07:46:34.996Z,20
2018-01-05T07:47:34.643Z,20
2018-01-05T07:48:35.099Z,20
2018-01-05T07:49:35.098Z,20
2018-01-05T07:50:35.084Z,25
2018-01-05T07:51:34.339Z,25
2018-01-05T07:52:34.573Z,25
2018-01-05T07:53:34.561Z,25
2018-01-05T07:54:35.058Z,25
2018-01-05T07:55:35.046Z,30
2018-01-05T07:56:35.055Z,30
2018-01-05T07:57:35.038Z,30
2018-01-05T07:58:35.116Z,30
2018-01-05T07:59:35.027Z,35
2018-01-05T08:00:34.509Z,35
2018-01-05T08:01:34.772Z,40
2018-01-05T08:02:35.014Z,45
2018-01-05T08:03:34.505Z,45
2018-01-05T08:04:34.769Z,45
2018-01-05T08:05:34.737Z,45
2018-01-05T08:06:34.479Z,45
2018-01-05T08:07:34.966Z,45
2018-01-05T08:08:34.973Z,45
2018-01-05T08:09:34.717Z,45
2018-01-05T08:10:34.447Z,45
2018-01-05T08:11:34.700Z,45
2018-01-05T08:12:34.456Z,45
2018-01-05T08:13:34.700Z,45
2018-01-05T08:14:34.681Z,50
2018-01-05T08:15:33.947Z,55
2018-01-05T08:16:35.974Z,50
2018-01-05T08:17:34.674Z,50
2018-01-05T08:18:34.665Z,50
2018-01-05T08:19:34.152Z,55
2018-01-05T08:20:34.400Z,55
2018-01-05T08:21:34.922Z,60
2018-01-05T08:22:34.933Z,55
2018-01-05T08:23:34.901Z,60
2018-01-05T08:24:34.896Z,55
2018-01-05T08:25:34.153Z,50
2018-01-05T08:26:34.886Z,55
2018-01-05T08:27:34.428Z,50
2018-01-05T08:28:34.878Z,55
2018-01-05T08:29:34.130Z,50
2018-01-05T08:30:34.882Z,55
2018-01-05T08:31:34.621Z,60
2018-01-05T08:32:34.611Z,60
2018-01-05T08:33:34.347Z,65
2018-01-05T08:34:34.587Z,60
2018-01-05T08:35:34.594Z,55
2018-01-05T08:37:06.456Z,65
2018-01-05T08:37:34.907Z,60
2018-01-05T08:38:34.584Z,65
2018-01-05T08:39:34.832Z,65
2018-01-05T08:40:34.577Z,70
2018-01-05T08:41:34.809Z,70
2018-01-05T08:42:34.569Z,75
2018-01-05T08:43:34.318Z,75
2018-01-05T08:44:34.309Z,75
2018-01-05T08:45:34.550Z,80
2018-01-05T08:46:35.744Z,80
2018-01-05T08:47:34.801Z,75
2018-01-05T08:48:34.531Z,75
2018-01-05T08:49:34.793Z,75
2018-01-05T08:50:34.781Z,80
2018-01-05T08:51:34.781Z,85
2018-01-05T08:52:34.524Z,85
2018-01-05T08:53:34.525Z,85
2018-01-05T08:54:34.511Z,85
2018-01-05T08:55:34.753Z,85
2018-01-05T08:56:34.753Z,85
2018-01-05T08:57:34.243Z,85
2018-01-05T08:58:34.493Z,85
2018-01-05T08:59:34.753Z,85
2018-01-05T09:00:34.814Z,85
2018-01-05T09:01:34.503Z,85
2018-01-05T09:02:34.494Z,85
2018-01-05T09:03:34.224Z,85
2018-01-05T09:04:34.725Z,85
2018-01-05T09:05:34.467Z,90
2018-01-05T09:06:34.749Z,90
2018-01-05T09:07:34.732Z,90
2018-01-05T09:08:34.468Z,90
2018-01-05T09:09:34.194Z,90
2018-01-05T09:10:34.200Z,90
2018-01-05T09:11:34.705Z,90
2018-01-05T09:12:34.211Z,85
2018-01-05T09:13:34.192Z,85
2018-01-05T09:14:34.444Z,85
2018-01-05T09:15:34.700Z,85
2018-01-05T09:16:35.139Z,85
2018-01-05T09:17:34.533Z,85
2018-01-05T09:18:34.480Z,85
2018-01-05T09:19:34.456Z,85
2018-01-05T09:20:34.421Z,80
2018-01-05T09:21:33.940Z,75
2018-01-05T09:22:34.421Z,70
2018-01-05T09:23:34.417Z,70
2018-01-05T09:24:34.404Z,65
2018-01-05T09:25:34.652Z,65
2018-01-05T09:26:34.671Z,65
2018-01-05T09:27:34.663Z,65
2018-01-05T09:28:34.404Z,65
2018-01-05T09:29:34.401Z,65
2018-01-05T09:30:34.392Z,65
2018-01-05T09:31:34.154Z,60
2018-01-05T09:32:34.377Z,65
2018-01-05T09:33:34.144Z,65
2018-01-05T09:34:33.898Z,70
2018-01-05T09:35:34.249Z,60
2018-01-05T09:36:34.635Z,60
2018-01-05T09:37:34.124Z,65
2018-01-05T09:38:34.368Z,65
2018-01-05T09:39:34.362Z,70
2018-01-05T09:40:34.640Z,70
2018-01-05T09:41:34.627Z,70
2018-01-05T09:42:34.354Z,70
2018-01-05T09:43:34.614Z,70
2018-01-05T09:44:34.374Z,70
2018-01-05T09:45:34.106Z,75
2018-01-05T09:46:36.222Z,75
2018-01-05T09:47:34.650Z,75
2018-01-05T09:48:34.110Z,75
2018-01-05T09:49:34.602Z,75
2018-01-05T09:50:34.601Z,75
2018-01-05T09:51:34.113Z,70
2018-01-05T09:52:34.339Z,70
2018-01-05T09:53:34.118Z,70
2018-01-05T09:54:34.331Z,70
2018-01-05T09:55:34.090Z,70
2018-01-05T09:56:34.108Z,70
2018-01-05T09:57:34.336Z,70
2018-01-05T09:58:34.316Z,70
2018-01-05T09:59:34.320Z,75
2018-01-05T10:00:34.562Z,75
2018-01-05T10:01:34.630Z,75
2018-01-05T10:02:34.306Z,75
2018-01-05T10:03:34.568Z,75
2018-01-05T10:04:34.565Z,75
2018-01-05T10:05:34.060Z,75
2018-01-05T10:06:34.083Z,70
2018-01-05T10:07:34.100Z,75
2018-01-05T10:08:34.564Z,75
2018-01-05T10:09:34.307Z,75
2018-01-05T10:10:34.292Z,75
2018-01-05T10:11:34.089Z,70
2018-01-05T10:12:34.555Z,75
2018-01-05T10:13:34.071Z,75
2018-01-05T10:14:34.287Z,75
2018-01-05T10:15:34.300Z,80
2018-01-05T10:16:34.555Z,80
2018-01-05T10:17:34.289Z,75
2018-01-05T10:18:34.276Z,75
2018-01-05T10:19:34.290Z,80
2018-01-05T10:20:34.281Z,80
2018-01-05T10:21:34.290Z,85
2018-01-05T10:22:34.023Z,85
2018-01-05T10:52:59.464Z,70
2018-01-05T10:53:59.707Z,70
2018-01-05T10:54:59.455Z,70
2018-01-05T10:55:59.697Z,70
2018-01-05T10:56:59.692Z,70
2018-01-05T10:57:59.688Z,70
2018-01-05T10:58:59.734Z,70
2018-01-05T10:59:59.930Z,65
2018-01-05T11:00:59.671Z,70
2018-01-05T11:01:59.924Z,70
2018-01-05T11:02:59.921Z,75
2018-01-05T11:03:59.664Z,70
2018-01-05T11:04:59.672Z,70
2018-01-05T11:05:59.650Z,75
2018-01-05T11:06:59.396Z,80
2018-01-05T11:07:59.663Z,80
2018-01-05T11:08:59.632Z,80
2018-01-05T11:09:59.623Z,80
2018-01-05T11:10:59.617Z,75
2018-01-05T11:11:59.361Z,75
2018-01-05T11:12:59.878Z,70
2018-01-05T11:13:59.865Z,70
2018-01-05T11:14:59.887Z,70
2018-01-05T11:15:59.863Z,65
2018-01-05T11:16:59.359Z,65
2018-01-05T11:17:59.106Z,65
2018-01-05T11:18:59.359Z,65
2018-01-05T11:19:59.599Z,60
2018-01-05T11:20:59.603Z,60
2018-01-05T11:21:59.618Z,60
2018-01-05T11:22:59.592Z,60
2018-01-05T11:23:59.348Z,55
2018-01-05T11:24:59.600Z,55
2018-01-05T11:25:59.632Z,55
2018-01-05T11:26:59.619Z,55
2018-01-05T11:27:59.832Z,55
2018-01-05T11:28:59.334Z,60
2018-01-05T11:29:59.569Z,60
2018-01-05T11:30:59.832Z,60
2018-01-05T11:31:59.810Z,60
2018-01-05T11:32:59.822Z,65
2018-01-05T11:33:59.564Z,65
2018-01-05T11:34:59.315Z,60
2018-01-05T11:35:59.572Z,60
2018-01-05T11:36:59.311Z,60
2018-01-05T11:37:59.566Z,55
2018-01-05T11:38:59.550Z,50
2018-01-05T11:39:59.292Z,50
2018-01-05T11:40:59.543Z,50
2018-01-05T11:41:59.027Z,55
2018-01-05T11:42:59.791Z,55
2018-01-05T11:43:59.797Z,55
2018-01-05T11:44:59.535Z,55
2018-01-05T11:45:59.782Z,55
2018-01-05T11:46:59.537Z,55
2018-01-05T11:47:59.280Z,55
2018-01-05T11:48:59.784Z,55
2018-01-05T11:49:59.270Z,50
2018-01-05T11:50:59.779Z,50
2018-01-05T11:51:59.505Z,50
2018-01-05T11:52:59.498Z,50
2018-01-05T11:53:59.755Z,50
2018-01-05T11:54:59.249Z,50
2018-01-05T11:55:59.758Z,50
2018-01-05T11:56:59.519Z,50
2018-01-05T11:57:59.239Z,50
2018-01-05T11:58:59.514Z,50
2018-01-05T11:59:59.745Z,45
2018-01-05T12:00:59.235Z,45
2018-01-05T12:01:59.494Z,45
2018-01-05T12:02:59.765Z,50
2018-01-05T12:03:59.492Z,50
2018-01-05T12:04:59.464Z,50
2018-01-05T12:05:59.230Z,55
2018-01-05T12:06:59.217Z,60
2018-01-05T12:07:59.737Z,70
2018-01-05T12:08:59.463Z,80
2018-01-05T12:09:59.206Z,85
2018-01-05T12:10:59.710Z,95
2018-01-05T12:11:59.705Z,95
2018-01-05T12:12:59.441Z,105
2018-01-05T12:13:59.199Z,105
2018-01-05T12:14:59.436Z,105
2018-01-05T12:15:59.195Z,100
2018-01-05T12:16:59.691Z,100
2018-01-05T12:17:59.434Z,95
2018-01-05T12:18:59.698Z,95
2018-01-05T12:19:59.434Z,95
2018-01-05T12:20:59.711Z,95
2018-01-05T12:21:59.170Z,95
2018-01-05T12:22:59.417Z,95
2018-01-05T12:23:59.172Z,90
2018-01-05T12:24:59.425Z,80
2018-01-05T12:25:59.172Z,75
2018-01-05T12:26:59.426Z,65
2018-01-05T12:27:59.418Z,70
2018-01-05T12:28:59.664Z,75
2018-01-05T12:29:59.410Z,80
2018-01-05T12:30:59.690Z,85
2018-01-05T12:31:59.400Z,85
2018-01-05T12:32:59.155Z,80
2018-01-05T12:33:59.656Z,80
2018-01-05T12:34:59.671Z,80
2018-01-05T12:35:59.152Z,75
2018-01-05T12:36:59.661Z,75
2018-01-05T12:37:59.148Z,75
2018-01-05T12:38:59.147Z,80
2018-01-05T12:39:59.407Z,80
2018-01-05T12:40:59.646Z,90
2018-01-05T12:41:59.222Z,85
2018-01-05T12:42:59.168Z,75
2018-01-05T12:43:59.406Z,65
2018-01-05T12:44:59.417Z,60
2018-01-05T12:45:59.377Z,65
2018-01-05T12:46:59.390Z,75
2018-01-05T12:47:59.624Z,75
2018-01-05T12:48:59.644Z,65
2018-01-05T12:49:59.371Z,50
2018-01-05T12:50:59.624Z,50
2018-01-05T12:51:59.634Z,50
2018-01-05T12:52:59.617Z,50
2018-01-05T12:53:59.392Z,45
2018-01-05T12:54:59.117Z,45
2018-01-05T12:55:59.359Z,50
2018-01-05T12:56:59.604Z,55
2018-01-05T12:57:59.460Z,60
2018-01-05T12:58:59.172Z,60
2018-01-05T12:59:59.101Z,55
2018-01-05T13:00:59.756Z,55
2018-01-05T13:01:59.161Z,50
2018-01-05T13:02:59.365Z,45
2018-01-05T13:03:59.412Z,45
2018-01-05T13:04:59.378Z,45
2018-01-05T13:05:59.336Z,45
2018-01-05T13:06:59.449Z,45
2018-01-05T13:07:59.352Z,45
2018-01-05T13:08:59.398Z,50
2018-01-05T13:09:59.429Z,45
2018-01-05T13:10:59.322Z,45
2018-01-05T13:11:59.112Z,40
2018-01-05T13:12:59.572Z,40
2018-01-05T13:13:59.325Z,45
2018-01-05T13:14:59.687Z,40
2018-01-05T13:15:59.310Z,40
2018-01-05T13:16:59.565Z,35
2018-01-05T13:17:59.560Z,30
2018-01-05T13:18:59.317Z,25
2018-01-05T13:19:59.061Z,25
2018-01-05T13:20:59.334Z,25
2018-01-05T13:21:59.574Z,25
2018-01-05T13:22:58.840Z,25
2018-01-05T13:23:59.563Z,25
2018-01-05T13:24:58.819Z,30
2018-01-05T13:25:59.555Z,30
2018-01-05T13:26:59.047Z,30
2018-01-05T13:27:59.553Z,35
2018-01-05T13:28:59.297Z,30
2018-01-05T13:29:59.300Z,30
2018-01-05T13:30:59.285Z,30
2018-01-05T13:31:59.278Z,30
2018-01-05T13:32:59.281Z,30
2018-01-05T13:33:59.027Z,30
2018-01-05T13:34:59.280Z,30
2018-01-05T13:35:59.020Z,30
2018-01-05T13:36:59.021Z,30
2018-01-05T13:37:59.393Z,30
2018-01-05T13:38:59.514Z,25
2018-01-05T13:39:59.263Z,25
2018-01-05T13:40:59.526Z,25
2018-01-05T13:41:59.006Z,25
2018-01-05T13:42:58.770Z,25
2018-01-05T13:43:59.503Z,30
2018-01-05T13:44:59.545Z,30
2018-01-05T13:45:59.261Z,30
2018-01-05T13:46:59.259Z,35
2018-01-05T13:47:59.308Z,40
2018-01-05T13:48:59.270Z,40
2018-01-05T13:49:59.558Z,40
2018-01-05T13:50:59.501Z,40
2018-01-05T13:51:59.304Z,40
2018-01-05T13:52:58.736Z,35
2018-01-05T13:53:59.231Z,35
2018-01-05T13:54:59.339Z,30
2018-01-05T13:55:58.726Z,35
2018-01-05T13:56:59.234Z,30
2018-01-05T13:57:59.486Z,25
2018-01-05T13:58:59.224Z,25
2018-01-05T13:59:58.997Z,25
2018-01-05T14:00:59.489Z,25
2018-01-05T14:01:58.961Z,30
2018-01-05T14:02:59.214Z,35
2018-01-05T14:03:58.961Z,30
2018-01-05T14:04:59.467Z,30
2018-01-05T14:05:59.226Z,30
2018-01-05T14:06:59.471Z,30
2018-01-05T14:07:59.211Z,30
2018-01-05T14:08:58.951Z,30
2018-01-05T14:09:59.209Z,30
2018-01-05T14:10:59.208Z,30
2018-01-05T14:11:58.713Z,30
2018-01-05T14:12:59.200Z,25
2018-01-05T14:13:58.938Z,25
2018-01-05T14:14:58.701Z,25
2018-01-05T14:15:58.706Z,20
2018-01-05T14:16:59.211Z,20
2018-01-05T14:17:59.208Z,20
2018-01-05T14:18:58.679Z,20
2018-01-05T14:19:58.919Z,15
2018-01-05T14:20:59.428Z,15
2018-01-05T14:21:58.922Z,15
2018-01-05T14:22:58.921Z,15
2018-01-05T14:23:58.666Z,15
2018-01-05T14:24:59.422Z,15
2018-01-05T14:25:59.417Z,15
2018-01-05T14:26:58.913Z,15
2018-01-05T14:27:59.409Z,15
2018-01-05T14:28:58.906Z,15
2018-01-05T14:29:59.164Z,10
2018-01-05T14:30:59.179Z,10
2018-01-05T14:31:58.910Z,10
2018-01-05T14:32:59.153Z,10
2018-01-05T14:33:59.160Z,10
2018-01-05T14:34:58.666Z,10
2018-01-05T14:35:59.160Z,10
2018-01-05T14:36:59.156Z,10
2018-01-05T14:37:59.215Z,10
2018-01-05T14:38:59.410Z,10
2018-01-05T14:39:59.152Z,10
2018-01-05T14:40:59.141Z,5
2018-01-05T14:41:59.410Z,5
2018-01-05T14:42:58.868Z,5
2018-01-05T14:43:59.440Z,5
2018-01-05T14:44:58.866Z,5
2018-01-05T14:45:58.868Z,5
2018-01-05T14:46:58.859Z,5
2018-01-05T14:47:59.111Z,5
2018-01-05T14:48:58.872Z,5
2018-01-05T14:49:59.372Z,5
2018-01-05T14:50:59.138Z,5
2018-01-05T14:51:59.366Z,5
2018-01-05T14:52:58.595Z,5
2018-01-05T14:53:59.101Z,5
2018-01-05T14:54:59.348Z,5
2018-01-05T14:55:58.896Z,5
2018-01-05T14:56:58.593Z,5
2018-01-05T14:57:59.340Z,5
2018-01-05T14:58:59.342Z,5
2018-01-05T14:59:59.134Z,0
2018-01-05T15:00:58.829Z,0
2018-01-05T15:01:58.837Z,0